createdAt,value
2023-02-03T00:01:46.919Z,93.57
2023-02-03T00:04:16.557Z,93.65
2023-02-03T00:06:46.330Z,93.55
2023-02-03T00:09:15.989Z,93.38
2023-02-03T00:11:45.592Z,93.52
2023-02-03T00:14:17.912Z,93.48
2023-02-03T00:16:47.592Z,93.49
2023-02-03T00:19:17.794Z,93.20
2023-02-03T00:21:47.431Z,93.22
2023-02-03T00:24:18.908Z,93.14
2023-02-03T00:26:48.506Z,93.12
2023-02-03T00:29:24.989Z,93.23
2023-02-03T00:31:55.393Z,93.02
2023-02-03T00:34:25.407Z,93.05
2023-02-03T00:36:54.999Z,93.21
2023-02-03T00:39:24.709Z,93.12
2023-02-03T00:41:54.281Z,92.81
2023-02-03T00:44:26.700Z,93.06
2023-02-03T00:46:56.577Z,92.86
2023-02-03T00:49:26.153Z,92.86
2023-02-03T00:51:56.350Z,92.55
2023-02-03T00:54:25.926Z,92.81
2023-02-03T00:56:55.632Z,92.54
2023-02-03T00:59:27.874Z,92.66
2023-02-03T01:01:57.534Z,92.70
2023-02-03T01:04:27.859Z,92.47
2023-02-03T01:06:59.855Z,92.54
2023-02-03T01:09:29.510Z,92.38
2023-02-03T01:11:59.076Z,92.25
2023-02-03T01:14:31.267Z,92.30
2023-02-03T01:17:00.989Z,92.13
2023-02-03T01:19:30.637Z,92.06
2023-02-03T01:22:01.329Z,92.06
2023-02-03T01:24:32.473Z,92.14
2023-02-03T01:27:02.077Z,91.89
2023-02-03T01:29:34.250Z,92.03
2023-02-03T01:32:04.415Z,92.05
2023-02-03T01:34:34.016Z,91.92
2023-02-03T01:37:03.564Z,91.73
2023-02-03T01:39:33.102Z,91.73
2023-02-03T01:42:03.124Z,91.51
2023-02-03T01:44:43.521Z,91.63
2023-02-03T01:47:19.356Z,91.60
2023-02-03T01:49:52.455Z,91.39
2023-02-03T01:52:22.104Z,91.50
2023-02-03T01:54:52.947Z,91.42
2023-02-03T01:57:26.061Z,91.46
2023-02-03T02:00:00.273Z,91.67
2023-02-03T02:02:31.051Z,91.60
2023-02-03T02:05:04.827Z,91.64
2023-02-03T02:07:34.802Z,91.46
2023-02-03T02:10:05.279Z,91.43
2023-02-03T02:12:34.904Z,91.52
2023-02-03T02:15:08.203Z,91.31
2023-02-03T02:17:57.132Z,91.19
2023-02-03T02:20:57.311Z,91.31
2023-02-03T02:24:07.341Z,91.33
2023-02-03T02:26:47.722Z,91.24
2023-02-03T02:30:00.429Z,91.28
2023-02-03T02:32:39.950Z,91.18
2023-02-03T02:35:19.064Z,91.10
2023-02-03T02:37:54.187Z,91.37
2023-02-03T02:40:28.411Z,91.18
2023-02-03T02:43:07.718Z,91.12
2023-02-03T02:45:44.128Z,91.14
2023-02-03T02:48:20.271Z,91.19
2023-02-03T02:50:52.463Z,91.04
2023-02-03T02:53:24.466Z,91.12
2023-02-03T02:55:55.216Z,91.19
2023-02-03T02:58:25.835Z,91.16
2023-02-03T03:00:57.926Z,91.31
2023-02-03T03:03:30.248Z,90.88
2023-02-03T03:06:02.997Z,90.84
2023-02-03T03:08:46.762Z,90.82
2023-02-03T03:11:16.358Z,90.87
2023-02-03T03:13:51.212Z,90.83
2023-02-03T03:16:24.807Z,90.74
2023-02-03T03:18:59.461Z,90.85
2023-02-03T03:21:31.408Z,91.03
2023-02-03T03:24:02.833Z,90.76
2023-02-03T03:26:37.287Z,91.10
2023-02-03T03:29:10.792Z,91.00
2023-02-03T03:31:41.538Z,90.81
2023-02-03T03:34:15.151Z,90.94
2023-02-03T03:36:47.649Z,91.13
2023-02-03T03:39:23.353Z,91.08
2023-02-03T03:42:00.635Z,91.06
2023-02-03T03:44:33.000Z,91.03
2023-02-03T03:47:08.328Z,91.12
2023-02-03T03:49:42.278Z,91.09
2023-02-03T03:52:13.509Z,91.09
2023-02-03T03:54:44.057Z,90.92
2023-02-03T03:57:17.451Z,90.76
2023-02-03T03:59:49.186Z,90.96
2023-02-03T04:02:20.965Z,90.77
2023-02-03T04:04:53.698Z,90.62
2023-02-03T04:07:23.268Z,90.67
2023-02-03T04:09:52.836Z,90.37
2023-02-03T04:12:26.035Z,90.16
2023-02-03T04:14:55.592Z,90.34
2023-02-03T04:17:25.358Z,90.22
2023-02-03T04:19:57.509Z,90.33
2023-02-03T04:22:27.103Z,90.11
2023-02-03T04:24:58.932Z,90.03
2023-02-03T04:27:28.516Z,90.19
2023-02-03T04:29:58.109Z,89.88
2023-02-03T04:32:27.815Z,89.96
2023-02-03T04:35:00.335Z,89.75
2023-02-03T04:37:30.353Z,89.80
2023-02-03T04:40:00.290Z,89.83
2023-02-03T04:42:29.986Z,89.74
2023-02-03T04:44:59.551Z,89.61
2023-02-03T04:47:29.149Z,89.52
2023-02-03T04:50:01.313Z,89.62
2023-02-03T04:52:31.413Z,89.59
2023-02-03T04:55:01.007Z,89.32
2023-02-03T04:57:30.614Z,89.34
2023-02-03T05:00:00.179Z,89.34
2023-02-03T05:02:29.812Z,89.38
2023-02-03T05:05:01.956Z,89.23
2023-02-03T05:07:31.546Z,89.03
2023-02-03T05:10:01.105Z,88.93
2023-02-03T05:12:30.666Z,89.01
2023-02-03T05:15:00.287Z,88.96
2023-02-03T05:17:29.844Z,88.79
2023-02-03T05:20:02.045Z,89.12
2023-02-03T05:22:31.617Z,88.92
2023-02-03T05:25:01.186Z,88.81
2023-02-03T05:27:30.750Z,88.72
2023-02-03T05:30:00.330Z,88.66
2023-02-03T05:32:29.923Z,88.77
2023-02-03T05:35:02.138Z,88.69
2023-02-03T05:37:31.700Z,88.37
2023-02-03T05:40:21.313Z,88.57
2023-02-03T05:42:48.687Z,88.33
2023-02-03T05:45:18.889Z,88.40
2023-02-03T05:47:48.479Z,88.30
2023-02-03T05:50:22.855Z,88.24
2023-02-03T05:52:52.505Z,87.99
2023-02-03T05:55:22.071Z,87.91
2023-02-03T05:57:52.087Z,87.95
2023-02-03T06:00:23.556Z,87.91
2023-02-03T06:02:57.490Z,87.78
2023-02-03T06:05:29.762Z,87.78
2023-02-03T06:07:59.443Z,87.85
2023-02-03T06:10:29.902Z,87.82
2023-02-03T06:12:59.915Z,87.79
2023-02-03T06:15:29.539Z,87.60
2023-02-03T06:17:59.099Z,87.52
2023-02-03T06:20:31.285Z,87.37
2023-02-03T06:23:01.020Z,87.30
2023-02-03T06:25:32.179Z,87.22
2023-02-03T06:28:01.888Z,87.24
2023-02-03T06:30:31.699Z,87.23
2023-02-03T06:33:01.388Z,87.29
2023-02-03T06:35:33.613Z,87.15
2023-02-03T06:38:03.374Z,87.02
2023-02-03T06:40:32.921Z,86.97
2023-02-03T06:43:02.506Z,86.82
2023-02-03T06:45:32.412Z,86.83
2023-02-03T06:48:02.137Z,86.77
2023-02-03T06:50:34.370Z,86.63
2023-02-03T06:53:03.936Z,86.41
2023-02-03T06:55:33.595Z,86.63
2023-02-03T06:58:03.201Z,86.45
2023-02-03T07:00:32.889Z,86.20
2023-02-03T07:03:03.132Z,86.35
2023-02-03T07:05:36.943Z,85.92
2023-02-03T07:08:06.562Z,86.09
2023-02-03T07:10:36.297Z,85.94
2023-02-03T07:13:06.492Z,85.98
2023-02-03T07:15:36.407Z,85.81
2023-02-03T07:18:06.306Z,85.68
2023-02-03T07:20:38.494Z,85.83
2023-02-03T07:23:08.068Z,85.71
2023-02-03T07:25:37.881Z,85.76
2023-02-03T07:28:07.910Z,85.55
2023-02-03T07:30:37.595Z,85.56
2023-02-03T07:33:07.984Z,85.67
2023-02-03T07:35:40.127Z,85.83
2023-02-03T07:38:09.696Z,85.67
2023-02-03T07:40:39.321Z,85.70
2023-02-03T07:43:08.875Z,85.76
2023-02-03T07:45:38.440Z,85.97
2023-02-03T07:48:08.353Z,85.66
2023-02-03T07:50:40.760Z,85.64
2023-02-03T07:53:10.535Z,85.42
2023-02-03T07:55:41.048Z,85.54
2023-02-03T07:58:10.654Z,85.17
2023-02-03T08:00:40.260Z,85.23
2023-02-03T08:03:09.860Z,85.10
2023-02-03T08:05:42.074Z,85.12
2023-02-03T08:08:11.658Z,84.88
2023-02-03T08:10:41.247Z,85.00
2023-02-03T08:13:10.852Z,85.03
2023-02-03T08:15:40.426Z,84.81
2023-02-03T08:18:12.649Z,84.81
2023-02-03T08:20:45.400Z,84.77
2023-02-03T08:23:14.990Z,84.78
2023-02-03T08:25:44.578Z,84.59
2023-02-03T08:28:14.220Z,84.55
2023-02-03T08:30:43.832Z,84.39
2023-02-03T08:33:13.408Z,84.14
2023-02-03T08:35:48.587Z,84.08
2023-02-03T08:38:18.279Z,84.17
2023-02-03T08:40:47.868Z,84.03
2023-02-03T08:43:17.469Z,83.93
2023-02-03T08:45:47.270Z,83.88
2023-02-03T08:48:17.049Z,83.80
2023-02-03T08:50:52.928Z,83.92
2023-02-03T08:53:22.637Z,83.96
2023-02-03T08:55:52.272Z,84.14
2023-02-03T08:58:21.861Z,84.13
2023-02-03T09:00:53.388Z,84.09
2023-02-03T09:03:22.984Z,84.51
2023-02-03T09:05:55.130Z,84.67
2023-02-03T09:08:24.679Z,84.98
2023-02-03T09:10:54.249Z,85.42
2023-02-03T09:13:24.011Z,85.77
2023-02-03T09:15:53.719Z,86.29
2023-02-03T09:18:23.300Z,86.53
2023-02-03T09:20:55.478Z,86.88
2023-02-03T09:23:25.221Z,87.12
2023-02-03T09:25:54.799Z,87.38
2023-02-03T09:28:24.405Z,87.79
2023-02-03T09:30:53.993Z,88.13
2023-02-03T09:33:23.561Z,88.43
2023-02-03T09:35:59.384Z,88.54
2023-02-03T09:38:29.861Z,88.74
2023-02-03T09:41:11.220Z,89.07
2023-02-03T09:43:44.741Z,89.27
2023-02-03T09:46:17.960Z,89.25
2023-02-03T09:48:51.761Z,89.16
2023-02-03T09:51:26.944Z,89.26
2023-02-03T09:54:01.380Z,89.17
2023-02-03T09:56:35.380Z,89.15
2023-02-03T09:59:05.960Z,88.86
2023-02-03T10:01:41.193Z,88.71
2023-02-03T10:04:28.024Z,88.68
2023-02-03T10:07:06.989Z,88.40
2023-02-03T10:09:48.655Z,88.12
2023-02-03T10:12:44.271Z,88.15
2023-02-03T10:15:27.183Z,88.24
2023-02-03T10:17:59.591Z,87.93
2023-02-03T10:20:36.914Z,87.98
2023-02-03T10:23:14.486Z,88.12
2023-02-03T10:25:46.595Z,88.10
2023-02-03T10:28:22.411Z,88.12
2023-02-03T10:30:59.502Z,88.19
2023-02-03T10:33:32.967Z,87.99
2023-02-03T10:36:08.055Z,88.20
2023-02-03T10:38:54.010Z,88.06
2023-02-03T10:41:24.417Z,88.25
2023-02-03T10:43:57.585Z,88.04
2023-02-03T10:46:31.163Z,88.34
2023-02-03T10:49:00.905Z,88.13
2023-02-03T10:51:33.082Z,88.12
2023-02-03T10:54:05.269Z,88.17
2023-02-03T10:56:38.066Z,88.05
2023-02-03T10:59:09.842Z,88.05
2023-02-03T11:01:44.652Z,88.25
2023-02-03T11:04:27.261Z,88.33
2023-02-03T11:06:58.897Z,88.27
2023-02-03T11:09:37.284Z,88.09
2023-02-03T11:12:13.756Z,88.31
2023-02-03T11:14:45.796Z,88.22
2023-02-03T11:17:19.903Z,88.32
2023-02-03T11:19:49.661Z,88.36
2023-02-03T11:22:30.245Z,88.30
2023-02-03T11:25:03.058Z,88.37
2023-02-03T11:27:33.483Z,88.16
2023-02-03T11:30:14.188Z,88.26
2023-02-03T11:32:45.121Z,88.14
2023-02-03T11:35:19.465Z,88.15
2023-02-03T11:37:50.393Z,88.30
2023-02-03T11:40:34.090Z,88.26
2023-02-03T11:43:06.346Z,88.35
2023-02-03T11:45:42.126Z,87.84
2023-02-03T11:48:21.450Z,88.09
2023-02-03T11:50:55.024Z,88.30
2023-02-03T11:53:30.526Z,88.06
2023-02-03T11:56:30.590Z,88.05
2023-02-03T11:59:10.071Z,88.00
2023-02-03T12:01:55.190Z,88.03
2023-02-03T12:04:32.577Z,87.87
2023-02-03T12:07:11.020Z,87.87
2023-02-03T12:09:49.686Z,87.72
2023-02-03T12:12:41.521Z,87.63
2023-02-03T12:15:24.235Z,87.65
2023-02-03T12:18:06.122Z,87.53
2023-02-03T12:20:47.171Z,87.43
2023-02-03T12:23:25.637Z,87.46
2023-02-03T12:26:03.929Z,87.26
2023-02-03T12:28:44.455Z,87.35
2023-02-03T12:31:17.944Z,87.59
2023-02-03T12:33:51.468Z,87.45
2023-02-03T12:36:25.334Z,87.49
2023-02-03T12:38:57.646Z,87.36
2023-02-03T12:41:30.783Z,87.22
2023-02-03T12:44:07.862Z,87.29
2023-02-03T12:46:41.541Z,87.34
2023-02-03T12:49:16.234Z,87.21
2023-02-03T12:51:50.057Z,87.14
2023-02-03T12:54:39.514Z,87.00
2023-02-03T12:57:18.379Z,87.01
2023-02-03T13:00:00.835Z,86.81
2023-02-03T13:02:32.635Z,86.87
2023-02-03T13:05:07.495Z,86.85
2023-02-03T13:07:42.323Z,86.67
2023-02-03T13:10:19.033Z,86.71
2023-02-03T13:12:52.737Z,86.76
2023-02-03T13:15:28.696Z,86.54
2023-02-03T13:18:00.808Z,86.53
2023-02-03T13:20:33.530Z,86.63
2023-02-03T13:23:03.131Z,86.46
2023-02-03T13:25:38.209Z,86.39
2023-02-03T13:28:16.510Z,86.40
2023-02-03T13:31:16.324Z,86.21
2023-02-03T13:34:15.878Z,86.14
2023-02-03T13:37:15.222Z,85.80
2023-02-03T13:39:52.788Z,85.70
2023-02-03T13:42:28.776Z,85.60
2023-02-03T13:45:01.085Z,85.65
2023-02-03T13:47:34.504Z,85.56
2023-02-03T13:50:06.822Z,85.34
2023-02-03T13:52:38.957Z,85.34
2023-02-03T13:55:10.386Z,85.18
2023-02-03T13:57:41.204Z,85.17
2023-02-03T14:00:46.576Z,85.14
2023-02-03T14:03:22.075Z,85.30
2023-02-03T14:05:54.520Z,85.41
2023-02-03T14:08:45.692Z,85.56
2023-02-03T14:11:47.155Z,85.58
2023-02-03T14:14:45.115Z,85.81
2023-02-03T14:17:44.575Z,85.93
2023-02-03T14:20:43.795Z,86.17
2023-02-03T14:23:19.936Z,86.29
2023-02-03T14:25:55.425Z,86.43
2023-02-03T14:28:27.768Z,86.69
2023-02-03T14:31:12.699Z,87.05
2023-02-03T14:34:08.850Z,87.10
2023-02-03T14:36:42.305Z,87.15
2023-02-03T14:39:44.373Z,87.46
2023-02-03T14:42:27.816Z,87.63
2023-02-03T14:45:08.628Z,87.76
2023-02-03T14:47:48.820Z,87.88
2023-02-03T14:50:35.442Z,88.01
2023-02-03T14:53:27.124Z,88.16
2023-02-03T14:56:06.837Z,88.51
2023-02-03T14:58:43.460Z,88.76
2023-02-03T15:01:28.975Z,89.41
2023-02-03T15:04:23.430Z,89.63
2023-02-03T15:06:54.683Z,89.82
2023-02-03T15:09:29.072Z,90.33
2023-02-03T15:11:58.720Z,90.28
2023-02-03T15:14:32.676Z,90.55
2023-02-03T15:17:04.109Z,90.76
2023-02-03T15:19:37.169Z,90.98
2023-02-03T15:22:21.314Z,91.27
2023-02-03T15:24:52.592Z,91.39
2023-02-03T15:27:27.364Z,91.76
2023-02-03T15:29:59.755Z,91.78
2023-02-03T15:32:33.306Z,92.02
2023-02-03T15:35:05.263Z,91.89
2023-02-03T15:37:38.493Z,91.75
2023-02-03T15:40:11.415Z,91.94
2023-02-03T15:42:44.769Z,92.05
2023-02-03T15:45:24.135Z,91.93
2023-02-03T15:47:55.905Z,92.00
2023-02-03T15:50:31.078Z,91.83
2023-02-03T15:53:06.409Z,91.81
2023-02-03T15:55:40.580Z,91.61
2023-02-03T15:58:14.230Z,91.24
2023-02-03T16:00:51.013Z,91.33
2023-02-03T16:03:22.643Z,91.23
2023-02-03T16:05:52.603Z,90.93
2023-02-03T16:08:30.434Z,90.99
2023-02-03T16:11:00.069Z,91.06
2023-02-03T16:13:32.401Z,90.67
2023-02-03T16:16:10.957Z,90.85
2023-02-03T16:18:40.789Z,90.48
2023-02-03T16:21:28.228Z,90.48
2023-02-03T16:23:57.844Z,90.41
2023-02-03T16:26:29.189Z,90.25
2023-02-03T16:29:30.153Z,89.95
2023-02-03T16:32:15.584Z,89.73
2023-02-03T16:34:58.705Z,89.73
2023-02-03T16:37:42.625Z,89.42
2023-02-03T16:40:26.508Z,89.04
2023-02-03T16:43:08.691Z,88.90
2023-02-03T16:45:51.254Z,88.54
2023-02-03T16:48:36.085Z,88.36
2023-02-03T16:51:08.873Z,88.12
2023-02-03T16:53:38.586Z,88.22
2023-02-03T16:56:09.100Z,87.99
2023-02-03T16:58:38.791Z,87.64
2023-02-03T17:01:09.770Z,87.70
2023-02-03T17:03:42.528Z,87.59
2023-02-03T17:06:15.036Z,87.62
2023-02-03T17:08:45.264Z,87.37
2023-02-03T17:11:18.415Z,87.54
2023-02-03T17:13:49.213Z,87.47
2023-02-03T17:16:20.829Z,87.20
2023-02-03T17:18:53.540Z,87.15
2023-02-03T17:21:25.126Z,86.96
2023-02-03T17:23:54.811Z,86.94
2023-02-03T17:26:24.524Z,86.86
2023-02-03T17:28:54.272Z,86.72
2023-02-03T17:31:24.111Z,86.74
2023-02-03T17:33:56.531Z,86.78
2023-02-03T17:36:26.537Z,86.76
2023-02-03T17:55:24.416Z,87.42
2023-02-03T17:57:54.309Z,87.27
2023-02-03T18:00:23.964Z,87.74
2023-02-03T18:02:54.235Z,87.52
2023-02-03T18:05:26.412Z,87.68
2023-02-03T18:07:55.996Z,87.59
2023-02-03T18:10:25.665Z,87.34
2023-02-03T18:12:55.523Z,87.26
2023-02-03T18:15:25.191Z,87.41
2023-02-03T18:17:54.797Z,87.10
2023-02-03T18:20:27.122Z,87.49
2023-02-03T18:22:56.789Z,87.32
2023-02-03T18:25:26.557Z,87.30
2023-02-03T18:27:56.158Z,87.10
2023-02-03T18:30:26.034Z,87.14
2023-02-03T18:32:55.684Z,86.80
2023-02-03T18:35:27.856Z,86.96
2023-02-03T18:37:57.440Z,86.84
2023-02-03T18:40:27.021Z,86.72
2023-02-03T18:42:56.959Z,86.65
2023-02-03T18:45:26.524Z,86.68
2023-02-03T18:47:56.142Z,86.79
2023-02-03T18:50:28.835Z,86.44
2023-02-03T18:52:58.924Z,86.30
2023-02-03T18:55:28.626Z,86.02
2023-02-03T18:57:58.530Z,86.12
2023-02-03T19:00:28.811Z,86.20
2023-02-03T19:02:58.710Z,86.28
2023-02-03T19:05:31.177Z,86.07
2023-02-03T19:08:00.777Z,86.11
2023-02-03T19:10:32.348Z,85.99
2023-02-03T19:13:01.929Z,86.18
2023-02-03T19:15:31.562Z,86.33
2023-02-03T19:18:01.229Z,86.23
2023-02-03T19:20:33.398Z,86.35
2023-02-03T19:23:04.528Z,86.05
2023-02-03T19:25:34.083Z,85.80
2023-02-03T19:28:03.854Z,85.92
2023-02-03T19:30:34.523Z,85.73
2023-02-03T19:33:04.676Z,85.61
2023-02-03T19:35:36.849Z,85.46
2023-02-03T19:38:06.448Z,85.67
2023-02-03T19:40:36.288Z,85.63
2023-02-03T19:43:06.671Z,85.62
2023-02-03T19:45:36.246Z,85.45
2023-02-03T19:48:05.867Z,85.27
2023-02-03T19:50:38.243Z,85.21
2023-02-03T19:53:09.649Z,85.43
2023-02-03T19:55:39.300Z,85.30
2023-02-03T19:58:08.882Z,85.28
2023-02-03T20:00:38.510Z,85.48
2023-02-03T20:03:08.089Z,85.38
2023-02-03T20:05:40.510Z,85.45
2023-02-03T20:08:12.948Z,85.37
2023-02-03T20:10:44.628Z,85.25
2023-02-03T20:13:14.778Z,85.11
2023-02-03T20:15:47.505Z,85.06
2023-02-03T20:18:17.580Z,84.90
2023-02-03T20:20:52.957Z,84.90
2023-02-03T20:23:22.571Z,84.74
2023-02-03T20:25:53.150Z,84.89
2023-02-03T20:28:24.103Z,84.99
2023-02-03T20:30:53.800Z,85.03
2023-02-03T20:33:23.402Z,85.01
2023-02-03T20:35:55.854Z,85.16
2023-02-03T20:38:25.463Z,85.07
2023-02-03T20:40:55.087Z,85.27
2023-02-03T20:43:29.612Z,85.38
2023-02-03T20:45:59.246Z,84.89
2023-02-03T20:48:29.034Z,84.70
2023-02-03T20:51:01.239Z,84.90
2023-02-03T20:53:30.839Z,84.64
2023-02-03T20:56:01.937Z,84.94
2023-02-03T20:58:33.542Z,84.78
2023-02-03T21:01:04.074Z,84.80
2023-02-03T21:03:46.178Z,84.97
2023-02-03T21:06:20.333Z,85.06
2023-02-03T21:08:50.075Z,84.95
2023-02-03T21:11:26.582Z,85.04
2023-02-03T21:13:56.571Z,84.91
2023-02-03T21:16:28.108Z,84.87
2023-02-03T21:19:02.202Z,84.97
2023-02-03T21:21:38.121Z,84.99
2023-02-03T21:24:25.568Z,84.66
2023-02-03T21:26:56.901Z,84.81
2023-02-03T21:29:28.596Z,85.00
2023-02-03T21:31:58.606Z,84.83
2023-02-03T21:34:30.966Z,84.61
2023-02-03T21:37:10.584Z,84.67
2023-02-03T21:39:40.168Z,84.63
2023-02-03T21:42:41.174Z,84.52
2023-02-03T21:45:40.674Z,84.52
2023-02-03T21:48:29.055Z,84.30
2023-02-03T21:50:59.527Z,84.27
2023-02-03T21:53:35.935Z,84.21
2023-02-03T21:56:18.841Z,84.33
2023-02-03T21:58:50.794Z,84.18
2023-02-03T22:01:22.962Z,84.16
2023-02-03T22:03:53.804Z,83.90
2023-02-03T22:06:26.265Z,83.84
2023-02-03T22:08:59.698Z,83.79
2023-02-03T22:11:31.411Z,83.62
2023-02-03T22:14:00.998Z,83.56
2023-02-03T22:16:31.156Z,83.35
2023-02-03T22:19:00.761Z,83.28
2023-02-03T22:21:30.381Z,83.13
2023-02-03T22:24:02.913Z,83.08
2023-02-03T22:26:32.697Z,83.18
2023-02-03T22:29:02.429Z,83.09
2023-02-03T22:31:32.159Z,82.86
2023-02-03T22:34:01.824Z,82.83
2023-02-03T22:36:31.414Z,82.96
2023-02-03T22:39:04.146Z,82.76
2023-02-03T22:41:33.723Z,82.71
2023-02-03T22:44:03.307Z,82.58
2023-02-03T22:46:33.298Z,82.72
2023-02-03T22:49:03.253Z,82.54
2023-02-03T22:51:32.844Z,82.67
2023-02-03T22:54:05.070Z,82.52
2023-02-03T22:56:34.625Z,82.54
2023-02-03T22:59:04.178Z,82.66
2023-02-03T23:01:34.589Z,82.29
2023-02-03T23:04:04.251Z,82.22
2023-02-03T23:06:33.827Z,82.35
2023-02-03T23:09:06.056Z,82.22
2023-02-03T23:11:35.663Z,82.27
2023-02-03T23:14:05.255Z,82.17
2023-02-03T23:16:34.868Z,82.33
2023-02-03T23:19:04.434Z,82.20
2023-02-03T23:21:34.046Z,82.21
2023-02-03T23:24:06.760Z,81.94
2023-02-03T23:26:36.362Z,81.99
2023-02-03T23:29:06.011Z,81.93
2023-02-03T23:31:36.076Z,81.84
2023-02-03T23:34:18.188Z,82.02
2023-02-03T23:36:47.782Z,81.88
2023-02-03T23:39:20.009Z,81.74
2023-02-03T23:41:49.585Z,81.61
2023-02-03T23:44:19.180Z,81.58
2023-02-03T23:46:49.262Z,81.69
2023-02-03T23:49:18.822Z,81.63
2023-02-03T23:51:48.420Z,81.80
2023-02-03T23:54:20.581Z,81.79
2023-02-03T23:56:50.160Z,81.60
2023-02-03T23:59:19.709Z,81.69
